Weather at Przasnysz Airfield

Public forecast

Using degrees Celsius for public forecast. Weather courtesy of forecast.io.

Closest aviation weather report (METAR) to Przasnysz Airfield

Closest report is Olsztyn-Mazury Airport, 28.6 nm (53.0 km) N.

2024/04/18 04:30 (retrieved 22 minutes ago)

EPSY 180430Z 30005KT 260V350 9999 BKN007 OVC013 03/02 Q1008

Closest aviation forecast (TAF) to Przasnysz Airfield

Forecast is more than 12 hours old.

Closest forecast is Ostrava Leos Janáček Airport, 225.1 nm (416.9 km) SSW.

2024/04/17 12:27 (retrieved 16 hours ago)

TAF TAF LKMT 171100Z 1712/1812 36010KT 9999 BKN030 TEMPO 1712/1812 6000 -SHRA BKN013TCU PROB30 TEMPO 1718/1806 3000 SHRA BKN007